Time;durP1;ratioP1;P1;durP2;ratioP2;P2;SDS_P1;SDS_P2;PMS_P1;PMS_P2;Temp;Humidity;BMP_temperature;BMP_pressure;BME280_temperature;BME280_humidity;BME280_pressure;Samples;Min_cycle;Max_cycle;Signal;HPM_P1;HPM_P2
2021/05/17 00:00:44;;;;;;;5.30;2.80;;;;;;;14.76;81.72;98467.38;1691160;84;20924;-74
2021/05/17 00:03:12;;;;;;;8.08;2.80;;;;;;;14.73;82.83;98466.15;1665365;84;20916;-74
2021/05/17 00:05:39;;;;;;;4.70;2.90;;;;;;;14.71;83.26;98463.54;1663179;85;21629;-74
2021/05/17 00:08:07;;;;;;;7.33;3.22;;;;;;;14.67;83.71;98466.83;1663230;85;20956;-74
2021/05/17 00:10:34;;;;;;;5.05;2.87;;;;;;;14.61;84.46;98458.62;1663451;86;20892;-73
2021/05/17 00:13:00;;;;;;;7.58;2.98;;;;;;;14.58;84.44;98453.27;1663249;85;21024;-72
2021/05/17 00:15:27;;;;;;;6.30;2.98;;;;;;;14.57;84.56;98448.11;1663225;86;21032;-74
2021/05/17 00:17:55;;;;;;;7.50;3.37;;;;;;;14.57;84.85;98446.14;1663225;86;21456;-74
2021/05/17 00:20:24;;;;;;;10.28;3.20;;;;;;;14.57;85.22;98438.44;1663043;85;20920;-72
2021/05/17 00:22:51;;;;;;;6.83;3.17;;;;;;;14.56;85.86;98445.13;1663216;85;21020;-74
2021/05/17 00:25:23;;;;;;;7.10;2.98;;;;;;;14.54;86.35;98451.02;1663158;85;21028;-74
2021/05/17 00:27:52;;;;;;;7.80;3.15;;;;;;;14.49;86.97;98452.13;1663240;86;20976;-74
2021/05/17 00:30:23;;;;;;;4.70;2.80;;;;;;;14.49;87.53;98452.13;1663179;86;21167;-73
2021/05/17 00:32:52;;;;;;;5.45;3.12;;;;;;;14.49;87.72;98456.27;1663273;85;21503;-72
2021/05/17 00:35:19;;;;;;;8.63;3.30;;;;;;;14.47;88.52;98457.22;1663218;86;20944;-73
2021/05/17 00:37:46;;;;;;;10.08;3.27;;;;;;;14.43;89.07;98458.34;1663125;86;20917;-75
2021/05/17 00:40:16;;;;;;;5.28;3.30;;;;;;;14.40;89.29;98451.56;1663246;86;20936;-73
2021/05/17 00:42:42;;;;;;;7.22;3.58;;;;;;;14.41;89.92;98461.48;1663190;86;21049;-73
2021/05/17 00:45:13;;;;;;;8.20;3.37;;;;;;;14.40;90.23;98456.29;1684506;84;21642;-73
2021/05/17 00:47:45;;;;;;;7.53;3.17;;;;;;;14.41;90.30;98446.29;1691096;84;20968;-71
2021/05/17 00:50:16;;;;;;;9.73;3.63;;;;;;;14.46;90.48;98450.09;1688191;84;21780;-74
2021/05/17 00:52:45;;;;;;;6.37;3.47;;;;;;;14.50;90.39;98449.58;1675607;84;21460;-72
2021/05/17 00:55:14;;;;;;;11.20;4.78;;;;;;;14.51;90.49;98454.52;1663210;86;21135;-71
2021/05/17 00:57:42;;;;;;;8.35;4.00;;;;;;;14.48;90.66;98441.45;1663063;85;20916;-71
2021/05/17 01:00:12;;;;;;;11.83;4.17;;;;;;;14.43;90.57;98443.96;1663198;86;20949;-73
2021/05/17 01:02:42;;;;;;;9.95;4.00;;;;;;;14.40;90.91;98441.11;1628125;88;21553;-74
2021/05/17 01:05:12;;;;;;;11.70;3.90;;;;;;;14.41;91.13;98446.29;1610596;88;20991;-72
2021/05/17 01:07:45;;;;;;;14.80;5.08;;;;;;;14.40;91.61;98444.66;1611790;88;20974;-74
2021/05/17 01:10:09;;;;;;;7.58;3.90;;;;;;;14.41;91.80;98444.91;1611249;88;20978;-73
2021/05/17 01:12:36;;;;;;;11.38;4.33;;;;;;;14.44;91.92;98436.47;1611884;89;20894;-73
2021/05/17 01:15:07;;;;;;;11.08;4.12;;;;;;;14.47;91.78;98430.98;1611847;88;20938;-73
2021/05/17 01:17:35;;;;;;;6.75;3.90;;;;;;;14.48;91.53;98424.30;1597247;89;20955;-73
2021/05/17 01:20:09;;;;;;;10.55;4.03;;;;;;;14.45;91.30;98424.23;1611836;88;21147;-72
2021/05/17 01:23:01;;;;;;;8.75;3.80;;;;;;;14.41;91.75;98418.68;1624919;87;21429;-73
2021/05/17 01:25:25;;;;;;;5.90;3.85;;;;;;;14.32;91.95;98422.23;1606740;88;20963;-73
2021/05/17 01:27:52;;;;;;;7.25;4.03;;;;;;;14.30;92.57;98423.19;1606226;89;21009;-73
2021/05/17 01:30:20;;;;;;;8.43;3.87;;;;;;;14.30;92.90;98414.91;1606189;89;21578;-73
2021/05/17 01:32:51;;;;;;;6.97;3.92;;;;;;;14.31;93.15;98415.12;1629703;88;21173;-73
2021/05/17 01:35:19;;;;;;;10.32;3.80;;;;;;;14.33;93.61;98418.31;1630683;86;21116;-73
2021/05/17 01:37:46;;;;;;;6.10;3.90;;;;;;;14.33;93.58;98410.61;1655440;86;20947;-73
2021/05/17 01:40:21;;;;;;;13.88;4.12;;;;;;;14.32;93.36;98407.05;1656456;86;20944;-73
2021/05/17 01:42:49;;;;;;;6.45;3.92;;;;;;;14.33;93.38;98398.98;1652124;86;21611;-73
2021/05/17 01:45:16;;;;;;;7.85;4.33;;;;;;;14.35;93.41;98398.03;1630090;86;21695;-73
2021/05/17 01:47:47;;;;;;;8.40;4.93;;;;;;;14.37;92.74;98386.63;1656640;86;21029;-73
2021/05/17 01:50:16;;;;;;;11.85;4.60;;;;;;;14.39;92.40;98381.53;1652082;86;20970;-73
2021/05/17 01:52:45;;;;;;;7.17;4.30;;;;;;;14.42;91.92;98377.48;1648398;86;20974;-73
2021/05/17 01:55:13;;;;;;;9.23;3.62;;;;;;;14.45;91.16;98360.14;1632606;86;21025;-74
2021/05/17 01:57:39;;;;;;;4.97;3.27;;;;;;;14.52;90.05;98354.73;1629589;87;21141;-74
2021/05/17 02:00:10;;;;;;;5.05;2.98;;;;;;;14.59;88.57;98343.00;1629513;87;21049;-74
2021/05/17 02:02:44;;;;;;;14.23;3.80;;;;;;;14.65;86.82;98340.14;1629571;87;20966;-73
2021/05/17 02:05:13;;;;;;;7.15;3.55;;;;;;;14.66;86.47;98331.27;1628785;88;20962;-72
2021/05/17 02:07:40;;;;;;;5.67;3.60;;;;;;;14.63;86.77;98330.05;1629677;88;20993;-76
2021/05/17 02:10:08;;;;;;;8.18;3.52;;;;;;;14.60;87.19;98316.19;1629584;87;21441;-74
2021/05/17 02:12:35;;;;;;;6.55;3.52;;;;;;;14.57;87.45;98310.82;1629594;87;21496;-74
2021/05/17 02:15:05;;;;;;;6.97;3.60;;;;;;;14.58;87.56;98307.47;1624362;88;21687;-74
2021/05/17 02:17:34;;;;;;;9.35;4.08;;;;;;;14.55;87.24;98300.73;1629681;87;20950;-76
2021/05/17 02:20:01;;;;;;;4.67;3.50;;;;;;;14.52;87.22;98285.70;1603993;88;21564;-76
2021/05/17 02:22:29;;;;;;;4.37;2.80;;;;;;;14.53;87.50;98280.97;1633467;86;21097;-76
2021/05/17 02:24:58;;;;;;;6.25;2.22;;;;;;;14.52;86.88;98268.34;1643031;86;21049;-74
2021/05/17 02:27:26;;;;;;;6.97;3.42;;;;;;;14.53;86.89;98263.82;1656474;86;21592;-73
2021/05/17 02:29:52;;;;;;;6.55;2.42;;;;;;;14.52;86.42;98259.47;1656302;86;20954;-74
2021/05/17 02:32:21;;;;;;;3.75;2.72;;;;;;;14.52;86.05;98256.70;1656471;86;20930;-74
2021/05/17 02:34:50;;;;;;;4.45;3.15;;;;;;;14.54;85.58;98259.89;1656266;86;21041;-74
2021/05/17 02:37:17;;;;;;;5.20;2.52;;;;;;;14.61;85.13;98262.55;1656385;86;20906;-74
2021/05/17 02:39:44;;;;;;;4.20;2.42;;;;;;;14.63;84.80;98261.59;1656321;86;20918;-73
2021/05/17 02:42:17;;;;;;;3.92;2.30;;;;;;;14.65;85.12;98265.56;1656346;86;20974;-73
2021/05/17 02:44:44;;;;;;;3.95;2.40;;;;;;;14.67;85.35;98272.09;1656590;86;21485;-74
2021/05/17 02:47:12;;;;;;;6.15;2.60;;;;;;;14.69;84.99;98269.76;1656338;86;21121;-74
2021/05/17 02:49:39;;;;;;;3.50;2.33;;;;;;;14.70;85.20;98274.11;1656390;86;20962;-71
2021/05/17 02:52:07;;;;;;;6.33;2.60;;;;;;;14.68;86.09;98273.69;1656419;86;20879;-71
2021/05/17 02:54:39;;;;;;;6.47;2.90;;;;;;;14.66;86.75;98276.03;1656329;86;21076;-74
2021/05/17 02:57:12;;;;;;;5.87;2.65;;;;;;;14.64;87.23;98276.98;1630317;86;20963;-75
2021/05/17 03:00:10;;;;;;;4.53;2.72;;;;;;;14.60;88.28;98281.66;1631095;86;21689;-76
2021/05/17 03:03:05;;;;;;;5.58;2.90;;;;;;;14.54;88.96;98276.45;1656258;86;20998;-72
2021/05/17 03:05:41;;;;;;;7.17;3.27;;;;;;;14.53;89.51;98280.97;1656375;86;20923;-73
2021/05/17 03:08:13;;;;;;;4.53;2.65;;;;;;;14.52;89.64;98284.32;1656457;86;20997;-74
2021/05/17 03:10:44;;;;;;;6.42;3.40;;;;;;;14.51;89.38;98279.17;1656372;86;21002;-74
2021/05/17 03:13:19;;;;;;;4.78;3.25;;;;;;;14.49;89.20;98282.30;1630959;86;21163;-75
2021/05/17 03:15:46;;;;;;;6.78;3.33;;;;;;;14.48;89.02;98284.85;1656356;86;20923;-73
2021/05/17 03:18:13;;;;;;;7.50;3.20;;;;;;;14.48;88.78;98279.33;1656325;86;21545;-72
2021/05/17 03:20:40;;;;;;;4.65;3.08;;;;;;;14.49;88.72;98273.22;1656407;86;21596;-77
2021/05/17 03:23:11;;;;;;;4.62;3.00;;;;;;;14.49;88.64;98273.22;1656306;86;20910;-71
2021/05/17 03:25:43;;;;;;;5.72;3.00;;;;;;;14.47;88.42;98268.07;1649136;86;21644;-70
2021/05/17 03:28:10;;;;;;;6.78;3.33;;;;;;;14.46;88.06;98265.09;1644111;87;20989;-70
2021/05/17 03:30:36;;;;;;;5.83;2.87;;;;;;;14.48;87.71;98262.76;1644915;86;20930;-71
2021/05/17 03:33:03;;;;;;;4.22;2.47;;;;;;;14.50;87.38;98268.70;1645160;86;21120;-71
2021/05/17 03:35:29;;;;;;;5.75;2.85;;;;;;;14.51;86.99;98256.49;1644608;86;20993;-72
2021/05/17 03:37:55;;;;;;;10.43;2.80;;;;;;;14.56;86.67;98254.58;1644828;87;21532;-71
2021/05/17 03:40:22;;;;;;;5.53;2.70;;;;;;;14.58;86.45;98250.28;1644856;87;21002;-72
2021/05/17 03:42:48;;;;;;;5.00;3.12;;;;;;;14.62;86.43;98241.45;1644825;86;21009;-70
2021/05/17 03:45:16;;;;;;;4.20;2.75;;;;;;;14.67;86.50;98243.09;1645000;87;20997;-69
2021/05/17 03:47:42;;;;;;;8.90;3.12;;;;;;;14.72;86.08;98245.53;1644855;86;21528;-70
2021/05/17 03:50:12;;;;;;;3.60;2.60;;;;;;;14.76;85.51;98247.17;1644891;86;21516;-71
2021/05/17 03:52:40;;;;;;;5.87;2.20;;;;;;;14.83;85.20;98239.56;1629900;86;21659;-70
2021/05/17 03:55:08;;;;;;;4.80;2.58;;;;;;;14.88;84.55;98240.62;1608060;88;21015;-71
2021/05/17 03:57:35;;;;;;;4.47;2.02;;;;;;;14.94;83.63;98233.59;1585973;90;21044;-70
2021/05/17 04:00:08;;;;;;;5.25;2.37;;;;;;;15.01;83.26;98227.35;1589915;90;21304;-71
2021/05/17 04:02:37;;;;;;;4.75;2.05;;;;;;;15.08;82.76;98228.79;1590440;90;21064;-72
2021/05/17 04:15:44;;;;;;;6.90;2.50;;;;;;;15.14;80.26;98229.45;1591396;90;21764;-75
2021/05/17 04:18:11;;;;;;;5.20;2.95;;;;;;;15.12;80.41;98222.13;1591744;90;20999;-71
2021/05/17 04:20:38;;;;;;;6.62;2.85;;;;;;;15.08;80.62;98218.53;1591963;90;21697;-69
2021/05/17 04:23:04;;;;;;;6.45;3.50;;;;;;;15.07;80.86;98211.41;1592093;88;21545;-72
2021/05/17 04:25:31;;;;;;;8.40;3.25;;;;;;;15.06;80.59;98209.03;1621783;87;21111;-74
2021/05/17 04:27:59;;;;;;;6.53;2.92;;;;;;;15.08;80.86;98214.97;1630981;88;21110;-72
2021/05/17 04:30:25;;;;;;;10.48;2.75;;;;;;;15.10;81.11;98220.33;1630979;88;21108;-73
2021/05/17 04:32:51;;;;;;;7.70;2.60;;;;;;;15.10;81.61;98223.09;1631193;88;21018;-73
2021/05/17 04:35:18;;;;;;;4.08;3.08;;;;;;;15.12;81.90;98222.13;1631072;88;21676;-74
2021/05/17 04:37:45;;;;;;;7.60;2.65;;;;;;;15.13;81.32;98223.72;1630959;88;21126;-74
2021/05/17 04:40:13;;;;;;;5.28;2.83;;;;;;;15.15;81.25;98225.52;1631169;88;21515;-75
2021/05/17 04:42:42;;;;;;;3.33;2.22;;;;;;;15.20;81.55;98214.72;1630689;88;21609;-73
2021/05/17 04:45:11;;;;;;;3.12;2.22;;;;;;;15.26;81.35;98217.94;1604141;88;21584;-73
2021/05/17 04:47:38;;;;;;;4.60;2.40;;;;;;;15.31;81.03;98218.98;1591681;90;21172;-83
2021/05/17 04:50:06;;;;;;;3.72;2.47;;;;;;;15.35;80.61;98219.81;1591597;89;21065;-71
2021/05/17 04:52:33;;;;;;;3.25;2.20;;;;;;;15.38;80.00;98227.34;1591781;90;22004;-70
2021/05/17 04:55:00;;;;;;;3.42;2.10;;;;;;;15.42;79.62;98232.33;1617810;88;21006;-70
2021/05/17 04:57:27;;;;;;;3.60;1.92;;;;;;;15.44;79.39;98236.89;1644753;87;20986;-74
2021/05/17 04:59:54;;;;;;;5.35;2.05;;;;;;;15.43;79.16;98241.63;1644946;86;21507;-72
2021/05/17 05:02:20;;;;;;;3.10;2.20;;;;;;;15.40;78.64;98238.23;1642627;87;21113;-72
2021/05/17 05:04:47;;;;;;;5.58;1.92;;;;;;;15.39;78.63;98238.62;1633063;86;21497;-74
2021/05/17 05:07:15;;;;;;;5.62;2.15;;;;;;;15.36;78.68;98242.14;1644733;87;20895;-69
2021/05/17 05:09:42;;;;;;;5.53;2.40;;;;;;;15.35;78.59;98248.84;1644841;86;21041;-72
2021/05/17 05:12:09;;;;;;;5.90;2.58;;;;;;;15.33;78.61;98247.84;1644820;87;21138;-77
2021/05/17 05:14:35;;;;;;;4.55;2.80;;;;;;;15.31;78.86;98254.33;1645110;86;20988;-69
2021/05/17 05:17:02;;;;;;;4.42;2.47;;;;;;;15.29;78.94;98248.97;1644644;86;21834;-73
2021/05/17 05:19:28;;;;;;;6.35;3.02;;;;;;;15.28;79.34;98257.06;1644939;86;21687;-74
2021/05/17 05:21:55;;;;;;;4.03;3.27;;;;;;;15.24;79.62;98254.25;1644818;87;21085;-74
2021/05/17 05:24:22;;;;;;;6.87;3.27;;;;;;;15.23;80.07;98242.19;1644868;86;21133;-74
2021/05/17 05:32:03;;;;;;;5.28;2.58;;;;;;;15.24;80.83;98220.28;1655764;86;21010;-76
2021/05/17 05:34:29;;;;;;;3.40;2.77;;;;;;;15.27;80.97;98223.09;1635450;86;20981;-74
2021/05/17 05:37:01;;;;;;;5.50;3.37;;;;;;;15.30;81.07;98214.62;1622651;87;21107;-76
2021/05/17 05:39:28;;;;;;;8.00;4.00;;;;;;;15.32;81.08;98212.27;1629217;88;21126;-75
2021/05/17 05:41:54;;;;;;;6.30;4.10;;;;;;;15.33;81.31;98209.72;1629039;87;21614;-72
2021/05/17 05:44:20;;;;;;;7.50;3.92;;;;;;;15.33;81.33;98214.66;1628947;88;21009;-75
2021/05/17 05:46:47;;;;;;;9.05;3.87;;;;;;;15.32;81.66;98215.04;1629003;87;20982;-75
2021/05/17 05:49:14;;;;;;;9.00;4.17;;;;;;;15.30;81.92;98214.03;1629167;88;21050;-74
2021/05/17 05:51:42;;;;;;;10.32;4.42;;;;;;;15.30;82.26;98215.41;1629232;88;21001;-74
2021/05/17 05:54:09;;;;;;;5.83;3.62;;;;;;;15.33;82.81;98216.63;1635999;86;21934;-73
2021/05/17 05:56:36;;;;;;;8.53;3.42;;;;;;;15.32;82.83;98212.27;1639559;86;20982;-73
2021/05/17 05:59:03;;;;;;;5.20;3.50;;;;;;;15.31;82.77;98205.95;1612577;88;21060;-76
2021/05/17 06:01:30;;;;;;;7.53;4.00;;;;;;;15.30;82.98;98200.80;1655565;86;21013;-74
2021/05/17 06:03:56;;;;;;;9.90;3.90;;;;;;;15.31;83.16;98191.33;1655780;86;20918;-71
2021/05/17 06:06:23;;;;;;;8.40;3.67;;;;;;;15.31;83.21;98172.77;1656333;86;21599;-73
2021/05/17 06:08:50;;;;;;;7.42;3.20;;;;;;;15.34;83.56;98158.78;1656425;86;21580;-73
2021/05/17 06:11:17;;;;;;;7.67;3.72;;;;;;;15.39;84.06;98145.98;1645277;86;20938;-75
2021/05/17 06:13:46;;;;;;;4.40;3.02;;;;;;;15.42;84.04;98141.87;1636495;86;20980;-77
2021/05/17 06:16:15;;;;;;;9.83;4.08;;;;;;;15.47;84.14;98142.11;1637504;86;21030;-75
2021/05/17 06:18:43;;;;;;;5.75;3.08;;;;;;;15.48;84.01;98146.47;1650575;86;21831;-78
2021/05/17 06:21:10;;;;;;;5.17;2.80;;;;;;;15.51;84.18;98145.11;1655201;86;21041;-78
2021/05/17 06:23:37;;;;;;;5.33;2.30;;;;;;;15.56;84.25;98140.41;1655088;86;21760;-76
2021/05/17 06:26:04;;;;;;;6.33;2.67;;;;;;;15.59;83.60;98137.70;1658344;86;21084;-73
2021/05/17 06:28:32;;;;;;;7.10;2.55;;;;;;;15.62;83.63;98131.96;1657273;86;21057;-75
2021/05/17 06:31:02;;;;;;;5.83;2.37;;;;;;;15.62;83.40;98133.34;1664618;86;22223;-78
2021/05/17 06:33:28;;;;;;;4.97;2.80;;;;;;;15.58;83.35;98133.94;1639591;86;20973;-75
2021/05/17 06:35:57;;;;;;;3.30;1.92;;;;;;;15.55;83.56;98138.23;1665235;86;21094;-78
2021/05/17 06:38:27;;;;;;;5.72;2.25;;;;;;;15.55;83.54;98139.61;1655912;86;21144;-77
2021/05/17 06:40:56;;;;;;;2.00;1.70;;;;;;;15.57;82.90;98146.17;1638987;87;20993;-74
2021/05/17 06:43:22;;;;;;;3.55;1.98;;;;;;;15.57;83.05;98148.36;1638938;87;21517;-74
2021/05/17 06:45:50;;;;;;;5.22;2.10;;;;;;;15.59;82.80;98150.15;1639135;87;21088;-76
2021/05/17 06:48:17;;;;;;;9.13;2.20;;;;;;;15.62;82.67;98144.41;1639429;87;21567;-75
2021/05/17 06:50:44;;;;;;;4.70;1.95;;;;;;;15.61;82.56;98153.30;1639441;87;20962;-78
2021/05/17 06:53:11;;;;;;;3.60;2.10;;;;;;;15.59;82.69;98158.45;1639324;87;20989;-75
2021/05/17 07:00:35;;;;;;;5.67;2.50;;;;;;;15.64;83.89;98182.96;1639363;87;20918;-75
2021/05/17 07:03:07;;;;;;;4.53;2.33;;;;;;;15.65;83.77;98172.69;1651105;86;21086;-76
2021/05/17 07:05:38;;;;;;;4.05;2.10;;;;;;;15.66;83.45;98170.13;1640757;86;21056;-78
2021/05/17 07:13:20;;;;;;;4.08;2.87;;;;;;;15.73;82.87;98163.27;1638778;87;21057;-78
2021/05/17 07:15:47;;;;;;;6.83;2.72;;;;;;;15.75;82.13;98167.84;1638865;87;21062;-78
2021/05/17 07:18:14;;;;;;;5.08;2.47;;;;;;;15.74;82.00;98174.55;1638713;87;21061;-75
2021/05/17 07:25:55;;;;;;;5.42;2.55;;;;;;;15.73;82.46;98166.84;1635244;87;21061;-76
2021/05/17 07:28:21;;;;;;;5.53;3.05;;;;;;;15.81;82.45;98150.50;1618492;88;20954;-75
2021/05/17 07:30:48;;;;;;;5.80;3.40;;;;;;;15.94;82.38;98154.34;1618669;88;21049;-76
2021/05/17 07:33:15;;;;;;;7.70;3.00;;;;;;;16.03;82.40;98164.48;1618539;88;21111;-76
2021/05/17 07:35:41;;;;;;;7.95;2.98;;;;;;;16.15;83.00;98172.48;1599436;89;21672;-73
2021/05/17 07:38:07;;;;;;;6.33;3.22;;;;;;;16.31;83.20;98179.87;1618624;88;21089;-74
2021/05/17 07:40:34;;;;;;;4.72;2.75;;;;;;;16.49;83.07;98180.77;1618538;88;21096;-75
2021/05/17 07:43:01;;;;;;;6.05;2.80;;;;;;;16.65;82.73;98187.41;1599503;89;21613;-80
2021/05/17 07:45:27;;;;;;;4.65;2.92;;;;;;;16.78;81.80;98187.24;1618382;88;21543;-80
2021/05/17 07:47:54;;;;;;;3.05;2.37;;;;;;;16.88;80.73;98184.91;1563979;91;21027;-79
2021/05/17 07:50:21;;;;;;;3.33;2.17;;;;;;;16.88;79.29;98179.36;1606403;88;21608;-74
2021/05/17 07:52:47;;;;;;;3.00;1.98;;;;;;;16.85;78.76;98176.78;1591585;90;21093;-76
2021/05/17 07:55:20;;;;;;;5.25;2.30;;;;;;;16.84;78.29;98177.38;1599568;88;21365;-77
2021/05/17 07:57:44;;;;;;;5.08;2.47;;;;;;;16.82;78.01;98192.80;1618286;88;21094;-74
2021/05/17 08:00:12;;;;;;;5.97;2.27;;;;;;;16.74;78.24;98195.37;1618400;88;21002;-77
2021/05/17 08:02:39;;;;;;;3.08;2.20;;;;;;;16.70;78.68;98200.89;1634167;87;21041;-72
2021/05/17 08:05:06;;;;;;;4.00;2.22;;;;;;;16.73;78.46;98200.12;1584379;90;21000;-74
2021/05/17 08:07:36;;;;;;;4.25;2.50;;;;;;;16.75;78.10;98203.27;1617303;88;20955;-70
2021/05/17 08:10:03;;;;;;;5.47;2.35;;;;;;;16.80;78.18;98211.80;1612624;88;21502;-72
2021/05/17 08:12:30;;;;;;;5.45;2.10;;;;;;;16.83;77.76;98208.25;1625737;88;21000;-72
2021/05/17 08:14:57;;;;;;;4.28;2.40;;;;;;;16.88;77.13;98198.17;1645257;87;21508;-74
2021/05/17 08:17:24;;;;;;;5.20;2.08;;;;;;;16.95;77.61;98191.27;1645278;86;20981;-72
2021/05/17 08:19:52;;;;;;;8.10;2.27;;;;;;;17.07;77.89;98195.08;1638533;87;21468;-72
2021/05/17 08:22:18;;;;;;;8.10;1.80;;;;;;;17.22;77.04;98200.08;1619078;88;21071;-72
2021/05/17 08:24:44;;;;;;;3.80;1.80;;;;;;;17.34;76.49;98194.73;1619100;88;20918;-72
2021/05/17 08:27:12;;;;;;;5.60;2.40;;;;;;;17.43;76.18;98196.53;1632725;87;20990;-85
2021/05/17 08:29:38;;;;;;;4.45;2.40;;;;;;;17.46;75.68;98202.08;1644489;86;21025;-68
2021/05/17 08:32:09;;;;;;;5.95;3.02;;;;;;;17.53;75.83;98211.02;1644854;86;21016;-67
2021/05/17 08:34:37;;;;;;;19.05;9.20;;;;;;;17.57;74.57;98213.20;1645301;87;21795;-69
2021/05/17 08:37:04;;;;;;;18.23;10.08;;;;;;;17.52;74.33;98219.14;1642359;87;20905;-70
2021/05/17 08:39:30;;;;;;;14.80;6.58;;;;;;;17.47;74.38;98223.69;1642167;87;21546;-78
2021/05/17 08:41:57;;;;;;;6.50;4.55;;;;;;;17.40;73.72;98232.78;1642094;87;21044;-73
2021/05/17 08:44:25;;;;;;;5.00;3.80;;;;;;;17.31;73.87;98228.83;1642218;87;20897;-69
2021/05/17 08:46:56;;;;;;;9.33;3.55;;;;;;;17.18;75.01;98220.66;1642611;87;21676;-74
2021/05/17 08:49:20;;;;;;;4.60;3.45;;;;;;;17.12;74.94;98216.09;1642218;87;21625;-73
2021/05/17 08:51:47;;;;;;;7.20;4.53;;;;;;;17.06;74.67;98218.44;1642568;87;20930;-71
2021/05/17 08:54:15;;;;;;;6.50;3.50;;;;;;;17.00;75.29;98228.32;1642459;87;21033;-72
2021/05/17 08:56:46;;;;;;;13.30;4.50;;;;;;;16.97;75.99;98231.08;1642379;87;20905;-75
2021/05/17 08:59:15;;;;;;;3.52;3.12;;;;;;;16.99;75.96;98230.09;1642517;87;21156;-72
2021/05/17 09:01:43;;;;;;;4.33;2.05;;;;;;;16.97;75.33;98230.48;1642442;87;21021;-76
2021/05/17 09:04:13;;;;;;;3.20;2.02;;;;;;;16.94;75.79;98234.03;1642393;87;20989;-72
2021/05/17 09:06:57;;;;;;;2.72;2.10;;;;;;;16.92;76.31;98239.17;1642374;87;21037;-74
2021/05/17 09:09:35;;;;;;;2.35;1.95;;;;;;;16.88;76.72;98232.82;1642164;87;21500;-73
2021/05/17 09:12:07;;;;;;;8.28;2.80;;;;;;;16.82;77.10;98237.94;1642493;87;20898;-73
2021/05/17 09:14:37;;;;;;;6.62;3.00;;;;;;;16.75;77.38;98229.59;1642238;87;21012;-73
2021/05/17 09:17:08;;;;;;;8.93;3.47;;;;;;;16.71;78.06;98226.63;1642592;87;20905;-73
2021/05/17 09:19:41;;;;;;;8.38;4.00;;;;;;;16.69;78.76;98220.67;1638418;87;21527;-73
2021/05/17 09:22:15;;;;;;;7.72;4.00;;;;;;;16.64;79.20;98209.94;1642610;87;20905;-73
2021/05/17 09:24:46;;;;;;;4.92;3.35;;;;;;;16.62;79.43;98211.70;1642412;87;21616;-73
2021/05/17 09:27:29;;;;;;;5.12;3.00;;;;;;;16.60;79.82;98214.66;1643349;85;21533;-73
2021/05/17 09:30:00;;;;;;;4.03;2.72;;;;;;;16.58;80.31;98213.66;1644885;87;20949;-73
2021/05/17 09:32:31;;;;;;;9.60;3.60;;;;;;;16.57;80.86;98208.51;1644880;87;20948;-73
2021/05/17 09:35:08;;;;;;;6.75;3.60;;;;;;;16.56;80.97;98203.56;1643795;86;20941;-73
2021/05/17 09:37:58;;;;;;;3.98;2.92;;;;;;;16.56;81.22;98211.88;1643780;87;21122;-73
2021/05/17 09:40:23;;;;;;;8.20;3.30;;;;;;;16.56;81.63;98211.08;1643614;87;21559;-73
2021/05/17 09:43:09;;;;;;;5.40;3.30;;;;;;;16.57;82.17;98210.69;1629871;88;21498;-73
2021/05/17 09:45:40;;;;;;;3.67;2.80;;;;;;;16.59;82.07;98214.45;1658020;86;20917;-73
2021/05/17 09:48:16;;;;;;;5.62;3.10;;;;;;;16.61;81.72;98219.02;1658200;86;21021;-73
2021/05/17 09:51:00;;;;;;;5.35;3.10;;;;;;;16.60;81.59;98213.27;1658076;86;21024;-73
2021/05/17 09:53:36;;;;;;;5.65;2.77;;;;;;;16.58;81.32;98206.73;1658207;86;21006;-73
2021/05/17 09:56:20;;;;;;;5.17;2.67;;;;;;;16.55;80.95;98206.72;1658235;86;21071;-73
2021/05/17 09:58:45;;;;;;;3.92;2.77;;;;;;;16.49;80.86;98204.31;1656833;86;21018;-73
2021/05/17 10:01:25;;;;;;;4.00;2.77;;;;;;;16.44;81.33;98200.53;1658165;86;21560;-73
2021/05/17 10:03:54;;;;;;;3.85;3.05;;;;;;;16.45;81.63;98199.94;1658170;86;21022;-73
2021/05/17 10:06:24;;;;;;;8.43;2.83;;;;;;;16.44;81.64;98193.60;1657015;86;21005;-73
2021/05/17 10:08:52;;;;;;;3.87;2.75;;;;;;;16.42;81.93;98191.02;1658376;86;21525;-73
2021/05/17 10:11:20;;;;;;;6.75;3.27;;;;;;;16.41;82.38;98190.22;1658096;86;21061;-73
2021/05/17 10:13:47;;;;;;;3.77;2.58;;;;;;;16.41;82.81;98186.06;1658056;86;21018;-73
2021/05/17 10:16:16;;;;;;;3.70;3.05;;;;;;;16.43;82.91;98181.53;1658115;86;21098;-73
2021/05/17 10:18:43;;;;;;;6.55;3.00;;;;;;;16.44;82.95;98181.14;1658092;86;20978;-73
2021/05/17 10:21:13;;;;;;;5.75;3.05;;;;;;;16.44;83.11;98163.13;1658130;86;21019;-73
2021/05/17 10:23:41;;;;;;;7.78;3.12;;;;;;;16.40;83.25;98154.60;1658027;86;21557;-73
2021/05/17 10:26:17;;;;;;;7.58;2.72;;;;;;;16.38;83.77;98142.53;1658136;86;20891;-73
2021/05/17 10:28:56;;;;;;;6.08;3.37;;;;;;;16.39;83.97;98130.27;1652077;86;21118;-72
2021/05/17 10:31:24;;;;;;;6.17;2.95;;;;;;;16.39;84.03;98121.16;1646729;86;21587;-71
2021/05/17 10:34:05;;;;;;;3.52;3.02;;;;;;;16.44;83.66;98121.59;1629667;87;20998;-73
2021/05/17 10:36:59;;;;;;;5.22;2.52;;;;;;;16.48;83.51;98123.78;1629772;87;21002;-72
2021/05/17 10:39:42;;;;;;;5.83;2.95;;;;;;;16.55;83.10;98127.17;1629705;88;20906;-72
2021/05/17 10:48:35;;;;;;;3.75;1.80;;;;;;;16.52;82.32;98125.19;1651935;86;21002;-73
2021/05/17 10:51:19;;;;;;;3.37;2.17;;;;;;;16.53;81.77;98131.52;1656053;86;20974;-73
2021/05/17 10:53:54;;;;;;;3.92;2.30;;;;;;;16.52;82.27;98125.19;1629705;87;21307;-73
2021/05/17 10:56:47;;;;;;;6.45;2.17;;;;;;;16.54;82.55;98116.48;1633179;86;21105;-73
2021/05/17 11:02:00;;;;;;;5.40;2.50;;;;;;;16.53;81.58;98099.66;1656422;86;21058;-73
2021/05/17 11:04:35;;;;;;;4.12;2.27;;;;;;;16.53;81.58;98097.69;1654610;86;20942;-73
2021/05/17 11:07:30;;;;;;;3.45;2.50;;;;;;;16.53;81.30;98110.74;1656418;86;20982;-73
2021/05/17 11:10:17;;;;;;;4.70;2.62;;;;;;;16.55;81.35;98115.30;1602606;88;22289;-73
2021/05/17 11:12:52;;;;;;;4.22;2.30;;;;;;;16.57;81.14;98111.55;1615849;88;20936;-73
2021/05/17 11:15:21;;;;;;;4.85;2.22;;;;;;;16.67;80.89;98109.45;1644043;87;20982;-73
2021/05/17 11:18:08;;;;;;;4.85;2.70;;;;;;;16.73;80.90;98115.60;1656376;86;20911;-73
2021/05/17 11:20:45;;;;;;;8.28;2.45;;;;;;;16.82;79.98;98111.05;1656406;86;21488;-73
2021/05/17 11:23:26;;;;;;;3.12;2.30;;;;;;;16.89;79.79;98110.27;1656493;86;21104;-74
2021/05/17 11:26:03;;;;;;;3.45;2.20;;;;;;;16.98;79.82;98112.88;1656253;86;20990;-72
2021/05/17 11:28:43;;;;;;;4.12;2.60;;;;;;;17.10;79.53;98111.71;1656233;86;20950;-74
2021/05/17 11:31:17;;;;;;;3.42;2.20;;;;;;;17.20;79.59;98119.84;1656476;86;21042;-72
2021/05/17 11:34:01;;;;;;;9.08;3.00;;;;;;;17.27;78.72;98124.81;1633824;86;20910;-74
2021/05/17 11:36:39;;;;;;;5.87;2.33;;;;;;;17.30;78.92;98119.07;1633454;86;21652;-74
2021/05/17 11:39:33;;;;;;;3.80;2.72;;;;;;;17.32;78.43;98120.27;1650926;86;20951;-74
2021/05/17 11:42:02;;;;;;;4.20;2.90;;;;;;;17.30;78.58;98107.38;1655351;86;20883;-74
2021/05/17 11:44:52;;;;;;;3.95;2.70;;;;;;;17.32;78.34;98105.60;1656257;86;20951;-74
2021/05/17 11:47:24;;;;;;;4.27;2.80;;;;;;;17.33;78.40;98107.19;1655269;86;20934;-74
2021/05/17 11:49:52;;;;;;;5.12;3.10;;;;;;;17.32;78.29;98111.15;1656403;86;21112;-74
2021/05/17 11:52:30;;;;;;;5.40;2.60;;;;;;;17.26;77.59;98120.45;1656433;86;21544;-74
2021/05/17 11:55:03;;;;;;;4.87;2.50;;;;;;;17.18;77.73;98122.22;1656514;86;20930;-74
2021/05/17 11:57:35;;;;;;;6.42;2.70;;;;;;;17.10;78.01;98123.59;1656674;86;21034;-74
2021/05/17 12:00:07;;;;;;;;;;;;;;;17.04;78.21;98129.33;1658939;85;20994;-74
2021/05/17 12:02:45;;;;;;;4.12;2.72;;;;;;;17.00;78.67;98133.27;1655950;86;21125;-74
2021/05/17 12:05:12;;;;;;;4.53;2.80;;;;;;;16.93;78.25;98132.66;1631863;86;20990;-74
2021/05/17 12:07:45;;;;;;;4.30;2.80;;;;;;;16.85;78.49;98132.44;1656529;86;20993;-74
2021/05/17 12:10:15;;;;;;;5.22;2.83;;;;;;;16.79;78.76;98138.95;1656264;86;20954;-74
2021/05/17 12:12:43;;;;;;;5.22;2.37;;;;;;;16.73;79.08;98139.16;1656666;86;21580;-74
2021/05/17 12:15:13;;;;;;;4.42;2.05;;;;;;;16.70;79.54;98144.09;1654505;86;21123;-74
2021/05/17 12:17:39;;;;;;;3.42;2.05;;;;;;;16.67;79.75;98147.64;1643355;85;21137;-74
2021/05/17 12:20:10;;;;;;;9.35;2.70;;;;;;;16.64;80.14;98153.96;1655739;86;20876;-74
2021/05/17 12:22:40;;;;;;;3.55;2.12;;;;;;;16.60;80.24;98150.94;1646588;86;21109;-73
2021/05/17 12:25:19;;;;;;;5.62;2.35;;;;;;;16.55;81.17;98148.55;1653690;86;20962;-73
2021/05/17 12:27:47;;;;;;;4.62;2.60;;;;;;;16.46;81.56;98142.77;1650839;86;21079;-74